Aviation Digital Data Service (ADDS)

Output produced by METARs form (0143 UTC 28 September 2016)
found at http://aviationweather.gov/adds/metars/
 
KLAX 280114Z 2801/2906 29011KT P6SM FEW100 FEW150 SCT250 
     FM280300 26007KT P6SM SCT150 BKN200 
     FM280500 VRB03KT P6SM SCT150 BKN200 
     FM281700 26006KT P6SM SCT150 BKN200 
     FM282000 26011KT P6SM SCT150 BKN200 
     FM290300 25006KT P6SM SCT250